< < Back
Terminal Aerodrome Forecast


Current Version              Previous Versions:   1  2  3  4  5  6  7  8  9  

Terminal Aerodrome Forecast

979
FTUS42 KCHS 281733
TAFCHS
TAF
KCHS 281733Z 2818/2918 29012G17KT P6SM SCT050
     FM290100 34006KT P6SM SKC
     FM290900 01008KT P6SM SKC=



Latest METAR

905
SAUS80 KWBC 290100 RRC
MTRCHS
METAR KCHS 290056Z 34005KT 10SM CLR 08/M02 A3016 RMK AO2 SLP212
T00781017


USA.gov is the U.S. government's official web portal to all federal, state and local government web resources and services.